This is the latest recevied weather packets stored in our database for station/object WC4PEM-7. If no packets are shown the sender has not sent any weather packets the latest 1 day(s).
| Time | Temp. | Humidity | Pressure | Rain* | Wind** | Luminosity | Snow |
|---|---|---|---|---|---|---|---|
| 1778094003 | 32.78° C | 46% | 1015.5 hPa | 0 mm | - | - | - |
| 1778093158 | 32.22° C | 49% | 1015.9 hPa | 0 mm | - | - | - |
| 1778088320 | 31.11° C | 52% | 1016.6 hPa | 0 mm | - | - | - |
| 1778088050 | 31.11° C | 53% | 1016.6 hPa | 0 mm | - | - | - |
| 1778085650 | 31.67° C | 51% | 1016.9 hPa | 0 mm | - | - | - |
| 1778084753 | 31.11° C | 56% | 1017.1 hPa | 0 mm | - | - | - |
| 1778084308 | 30.56° C | 58% | 1017.1 hPa | 0 mm | - | - | - |
| 1778084113 | 30° C | 59% | 1016.9 hPa | 0 mm | - | - | - |
| 1778083708 | 30° C | 58% | 1017.1 hPa | 0 mm | - | - | - |
| 1778083408 | 29.44° C | 60% | 1017.1 hPa | 0 mm | - | - | - |
| 1778083208 | 29.44° C | 59% | 1017.1 hPa | 0 mm | - | - | - |
| 1778083108 | 29.44° C | 59% | 1017.1 hPa | 0 mm | - | - | - |
| 1778082808 | 30° C | 60% | 1017 hPa | 0 mm | - | - | - |
| 1778082611 | 29.44° C | 62% | 1017 hPa | 0 mm | - | - | - |
| 1778082508 | 29.44° C | 62% | 1017 hPa | 0 mm | - | - | - |
| 1778082388 | 29.44° C | 62% | 1016.9 hPa | 0 mm | - | - | - |
| 1778082208 | 29.44° C | 62% | 1016.9 hPa | 0 mm | - | - | - |
| 1778081908 | 29.44° C | 63% | 1017 hPa | 0 mm | - | - | - |
| 1778081608 | 28.89° C | 66% | 1017.2 hPa | 0 mm | - | - | - |
| 1778081308 | 28.89° C | 66% | 1017.3 hPa | 0 mm | - | - | - |
| 1778081008 | 28.89° C | 66% | 1017.2 hPa | 0 mm | - | - | - |
| 1778080408 | 29.44° C | 63% | 1017 hPa | 0 mm | - | - | - |
| 1778080108 | 28.89° C | 66% | 1017.1 hPa | 0 mm | - | - | - |
| 1778079208 | 27.78° C | 67% | 1016.8 hPa | 0 mm | - | - | - |
| 1778078908 | 27.78° C | 67% | 1016.9 hPa | 0 mm | - | - | - |
* Rain latest hour (hover to see other rain measurements)
** Current wind speed in m/s (hover to see current wind gust speed)